River Forest, Illinois
Current Conditions -  °F | °C
As of 7:53 AM on Thursday 23 Oct 2014 (Local Time) from KMDW Reporting Station
Broken Clouds Broken Clouds  
Wind Chill:   Ceiling: 30000
Heat Index:   Visibility: 7mi
Dew Point:   Wind: 7mph
Humidity: 89%   Direction: 170°S
Pressure: 30.22"   Gusts: NA
Location:  41.88°N, 87.82°W
Report Text: KMDW 231253Z 17006KT 7SM FEW250 BKN300 06/04 A3022 RMK AO2 SLP239 T00560039
Loading
Personal Weather Stations






























Interactive Weather Map
Tropical Storm Tracking
New forecast layout! Learn more

10-Day Weather Forecast

Advertisements
Track Severe Weather on mobile